Metar Cercanos

 

LEPA - Palma De Mallorc, Spain
Distance from station: ONO 38km
Actualización: 22/06/2018 06:30
Despejado
Despejado
 Viento del varies
Viento: varies 2 km/h
Temperatura: 17°C
Rocío: 16°C
Humedad: 94%
Barómetro: 1017 hPa
Resumen: Despejado
Visibility: greater than 10 km
2018/06/22 04:30 LEPA 220430Z VRB01KT CAVOK 17/16 Q1017 NOSIG
LEMH - Mahon/Menorca Is, Spain
Distance from station: ENE 105km
Actualización: 22/06/2018 06:30
Few Clouds
Few Clouds
 Viento del NO
Viento: NO 7 km/h
Temperatura: 20°C
Rocío: 17°C
Humedad: 83%
Barómetro: 1016 hPa
Clouds: Few Clouds
Visibility: 10 km
Cloud details: Few Clouds 1067 m
2018/06/22 04:30 LEMH 220430Z 31004KT 9999 FEW035 20/17 Q1016
 
LEIB - Ibiza/Es Codola, Spain
Distance from station: OSO 165km
Actualización: 22/06/2018 06:30
Despejado
Despejado
 Viento del varies
Viento: varies 4 km/h
Temperatura: 19°C
Rocío: 15°C
Humedad: 78%
Barómetro: 1017 hPa
Resumen: Despejado
Visibility: greater than 10 km
2018/06/22 04:30 LEIB 220430Z VRB02KT CAVOK 19/15 Q1017 NOSIG
LEBL - Barcelona Airpor, Spain
Distance from station: NNO 225km
Actualización: 22/06/2018 06:30
Despejado
Despejado
 Viento del ONO
Viento: ONO 11 km/h
Temperatura: 23°C
Rocío: 13°C
Humedad: 53%
Barómetro: 1016 hPa
Resumen: Despejado
Visibility: greater than 10 km
2018/06/22 04:30 LEBL 220430Z 29006KT CAVOK 23/13 Q1016 NOSIG
 
LEVC - Valencia (civ/Mi, Spain
Distance from station: NO 188km
Actualización: 22/06/2018 06:30
Despejado
Despejado
 Viento del OSO
Viento: OSO 6 km/h
Temperatura: 20°C
Rocío: 15°C
Humedad: 73%
Barómetro: 1017 hPa
Resumen: Despejado
Visibility: greater than 10 km
2018/06/22 04:30 LEVC 220430Z 25003KT CAVOK 20/15 Q1017 NOSIG
LEGE - Gerona/Costa Bra, Spain
Distance from station: N 276km
Actualización: 22/06/2018 06:30
Despejado
Despejado
 Viento del NE
Viento: NE 7 km/h
Temperatura: 17°C
Rocío: 16°C
Humedad: 94%
Barómetro: 1016 hPa
Resumen: Despejado
Visibility: greater than 10 km
2018/06/22 04:30 LEGE 220430Z 04004KT CAVOK 17/16 Q1016
 
LEAL - Alicante/El Alte, Spain
Distance from station: OSO 344km
Actualización: 22/06/2018 06:30
Despejado
Despejado
 Viento del O
Viento: O 4 km/h
Temperatura: 20°C
Rocío: 15°C
Humedad: 73%
Barómetro: 1016 hPa
Resumen: Despejado
Visibility: greater than 10 km
2018/06/22 04:30 LEAL 220430Z 28002KT CAVOK 20/15 Q1016 NOSIG
LEAM - Almeria Airport, Spain
Distance from station: SSO 56km
Actualización: 22/06/2018 06:30
Despejado
Despejado
 Viento del NNO
Viento: NNO 9 km/h
Temperatura: 22°C
Rocío: 11°C
Humedad: 50%
Barómetro: 1015 hPa
Resumen: Despejado
Visibility: greater than 10 km
2018/06/22 04:30 LEAM 220430Z 34005KT CAVOK 22/11 Q1015
 
LEZG - Zaragoza (mil/Ci, Spain
Distance from station: NO 431km
Actualización: 22/06/2018 06:30
Despejado
Despejado
 Viento del ONO
Viento: ONO 26 km/h
Temperatura: 20°C
Rocío: 17°C
Humedad: 83%
Barómetro: 1018 hPa
Resumen: Despejado
Visibility: greater than 10 km
2018/06/22 04:30 LEZG 220430Z 30014KT CAVOK 20/17 Q1018
LEMD - Madrid/Barajas, Spain
Distance from station: ONO 234km
Actualización: 22/06/2018 06:30
Despejado
Despejado
 Viento del NO
Viento: NO 6 km/h
Temperatura: 19°C
Rocío: 13°C
Humedad: 68%
Barómetro: 1019 hPa
Resumen: Despejado
Visibility: greater than 10 km
2018/06/22 04:30 LEMD 220430Z 32003KT CAVOK 19/13 Q1019 NOSIG
 
LEGR - Granada Airport, Spain
Distance from station: OSO 62km
Actualización: 22/06/2018 06:30
Despejado
Despejado
 Viento del SSE
Viento: SSE 4 km/h
Temperatura: 17°C
Rocío: 11°C
Humedad: 68%
Barómetro: 1019 hPa
Resumen: Despejado
Visibility: greater than 10 km
2018/06/22 04:30 LEGR 220430Z 16002KT CAVOK 17/11 Q1019
LEMG - Malaga (civ/Mil), Spain
Distance from station: OSO 227km
Actualización: 22/06/2018 06:30
Despejado
Despejado
 Viento del ONO
Viento: ONO 15 km/h
Temperatura: 19°C
Rocío: 12°C
Humedad: 64%
Barómetro: 1016 hPa
Resumen: Despejado
Visibility: greater than 10 km
2018/06/22 04:30 LEMG 220430Z 29008KT CAVOK 19/12 Q1016 NOSIG
 
LEZL - Sevilla (civ/Mil, Spain
Distance from station: S 318km
Actualización: 22/06/2018 06:30
Despejado
Despejado
 Viento del ESE
Viento: ESE 6 km/h
Temperatura: 20°C
Rocío: 15°C
Humedad: 73%
Barómetro: 1016 hPa
Resumen: Despejado
Visibility: greater than 10 km
2018/06/22 04:30 LEZL 220430Z 12003KT 080V140 CAVOK 20/15 Q1016 NOSIG
LEVT - Vitoria, Spain
Distance from station: NO 226km
Actualización: 22/06/2018 06:30
Muy nuboso
Muy nuboso
 Viento del calm
Viento: Calma
Temperatura: 18°C
Rocío: 16°C
Humedad: 88%
Barómetro: 1022 hPa
Clouds: Muy nuboso
Visibility: 8 km
Cloud details: Parcialmente nuboso 244 m
Muy nuboso 488 m
2018/06/22 04:30 LEVT 220430Z 00000KT 8000 SCT008 BKN016 18/16 Q1022
 
LEBB - Bilbao/Sondica, Spain
Distance from station: NNO 235km
Actualización: 22/06/2018 06:30
Muy nuboso
Muy nuboso
 Viento del NNO
Viento: NNO 7 km/h
Temperatura: 20°C
Rocío: 18°C
Humedad: 88%
Barómetro: 1022 hPa
Clouds: Muy nuboso
Visibility: 9 km
Cloud details: Muy nuboso 549 m
Muy nuboso 884 m
2018/06/22 04:30 LEBB 220430Z 33004KT 9000 BKN018 BKN029 20/18 Q1022 TEMPO 3000 BR BKN010
LESO - San Sebastian/Fu, Spain
Distance from station: N 231km
Actualización: 22/06/2018 06:30
Muy nuboso
Muy nuboso
 Viento del OSO
Viento: OSO 7 km/h
Temperatura: 20°C
Rocío: 18°C
Humedad: 88%
Barómetro: 1021 hPa
Clouds: Muy nuboso
Visibility: 10 km
Cloud details: Parcialmente nuboso 366 m
Muy nuboso 762 m
2018/06/22 04:30 LESO 220430Z 24004KT 200V300 9999 SCT012 BKN025 20/18 Q1021
 
LEVD - Valladolid(Mil/C, Spain
Distance from station: ONO 239km
Actualización: 21/06/2018 21:30
NOT Current
Despejado
Despejado
 Viento del NE
Viento: NE 15 km/h
Temperatura: 22°C
Rocío: 18°C
Humedad: 78%
Barómetro: 1020 hPa
Resumen: Despejado
Visibility: greater than 10 km
2018/06/21 19:30 LEVD 211930Z 05008KT CAVOK 22/18 Q1020
LESA - Salamanca (civ/M, Spain
Distance from station: ONO 349km
Actualización: 21/06/2018 22:30
NOT Current
Few Clouds
Few Clouds
 Viento del NO
Viento: NO 7 km/h
Temperatura: 20°C
Rocío: 18°C
Humedad: 88%
Barómetro: 1020 hPa
Clouds: Few Clouds
Visibility: 10 km
Cloud details: Few Clouds 762 m
2018/06/21 20:30 LESA 212030Z 32004KT 9999 FEW025CB 20/18 Q1020
 
LEXJ - Santander/Paraya, Spain
Distance from station: NNO 247km
Actualización: 22/06/2018 06:30
Muy nuboso
Muy nuboso
 Viento del OSO
Viento: OSO 4 km/h
Temperatura: 19°C
Rocío: 19°C
Humedad: 100%
Barómetro: 1022 hPa
Clouds: Muy nuboso
Visibility: 10 km
Cloud details: Muy nuboso 366 m
2018/06/22 04:30 LEXJ 220430Z 25002KT 9999 BKN012 19/19 Q1022
LEAS - Asturias/Aviles, Spain
Distance from station: NO 214km
Actualización: 22/06/2018 06:30
Muy nuboso
Muy nuboso
 Viento del ENE
Viento: ENE 7 km/h
Temperatura: 17°C
Rocío: 17°C
Humedad: 100%
Barómetro: 1022 hPa
Clouds: Muy nuboso
Visibility: 8 km
Cloud details: Parcialmente nuboso 183 m
Muy nuboso 274 m
2018/06/22 04:30 LEAS 220430Z 07004KT 020V110 8000 SCT006 BKN009 17/17 Q1022 TEMPO 4000 BR
 
LECO - La Coruna/Alvedr, Spain
Distance from station: ONO 222km
Actualización: 22/06/2018 06:30
Despejado
Despejado
 Viento del varies
Viento: varies 2 km/h
Temperatura: 17°C
Rocío: 16°C
Humedad: 94%
Barómetro: 1019 hPa
Resumen: Despejado
Visibility: greater than 10 km
2018/06/22 04:30 LECO 220430Z VRB01KT CAVOK 17/16 Q1019 NOSIG
LEVX - Vigo/Peinador, Spain
Distance from station: O 214km
Actualización: 22/06/2018 06:30
Few Clouds
Few Clouds
 Viento del N
Viento: N 11 km/h
Temperatura: 19°C
Rocío: 17°C
Humedad: 88%
Barómetro: 1018 hPa
Clouds: Few Clouds
Visibility: 10 km
Cloud details: Few Clouds 1219 m
2018/06/22 04:30 LEVX 220430Z 36006KT 9999 FEW040 19/17 Q1018 NOSIG